sensor_id;sensor_type;location;lat;lon;timestamp;temperature;humidity
13186;DHT22;6658;53.080;7.428;2023-05-29T00:02:08;8.60;99.90
13186;DHT22;6658;53.080;7.428;2023-05-29T00:04:34;8.60;99.90
13186;DHT22;6658;53.080;7.428;2023-05-29T00:07:01;8.60;99.90
13186;DHT22;6658;53.080;7.428;2023-05-29T00:09:27;8.60;99.90
13186;DHT22;6658;53.080;7.428;2023-05-29T00:11:53;8.60;99.90
13186;DHT22;6658;53.080;7.428;2023-05-29T00:14:19;8.50;99.90
13186;DHT22;6658;53.080;7.428;2023-05-29T00:16:46;8.50;99.90
13186;DHT22;6658;53.080;7.428;2023-05-29T00:19:13;8.50;99.90
13186;DHT22;6658;53.080;7.428;2023-05-29T00:21:39;8.40;99.90
13186;DHT22;6658;53.080;7.428;2023-05-29T00:24:06;8.30;99.90
13186;DHT22;6658;53.080;7.428;2023-05-29T00:26:31;8.30;99.90
13186;DHT22;6658;53.080;7.428;2023-05-29T00:28:57;8.30;99.90
13186;DHT22;6658;53.080;7.428;2023-05-29T00:31:23;8.30;99.90
13186;DHT22;6658;53.080;7.428;2023-05-29T00:33:49;8.20;99.90
13186;DHT22;6658;53.080;7.428;2023-05-29T00:36:15;8.20;99.90
13186;DHT22;6658;53.080;7.428;2023-05-29T00:38:42;8.20;99.90
13186;DHT22;6658;53.080;7.428;2023-05-29T00:41:14;8.10;99.90
13186;DHT22;6658;53.080;7.428;2023-05-29T00:43:39;8.10;99.90
13186;DHT22;6658;53.080;7.428;2023-05-29T00:46:05;8.10;99.90
13186;DHT22;6658;53.080;7.428;2023-05-29T00:48:31;8.10;99.90
13186;DHT22;6658;53.080;7.428;2023-05-29T00:50:56;8.00;99.90
13186;DHT22;6658;53.080;7.428;2023-05-29T00:53:23;8.00;99.90
13186;DHT22;6658;53.080;7.428;2023-05-29T00:55:49;8.00;99.90
13186;DHT22;6658;53.080;7.428;2023-05-29T00:58:15;8.00;99.90
13186;DHT22;6658;53.080;7.428;2023-05-29T01:00:41;8.00;99.90
13186;DHT22;6658;53.080;7.428;2023-05-29T01:03:08;7.90;99.90
13186;DHT22;6658;53.080;7.428;2023-05-29T01:05:35;7.90;99.90
13186;DHT22;6658;53.080;7.428;2023-05-29T01:08:03;7.90;99.90
13186;DHT22;6658;53.080;7.428;2023-05-29T01:10:29;7.90;99.90
13186;DHT22;6658;53.080;7.428;2023-05-29T01:13:07;7.90;99.90
13186;DHT22;6658;53.080;7.428;2023-05-29T01:15:58;7.90;99.90
13186;DHT22;6658;53.080;7.428;2023-05-29T01:18:51;7.80;99.90
13186;DHT22;6658;53.080;7.428;2023-05-29T01:24:49;7.80;99.90
13186;DHT22;6658;53.080;7.428;2023-05-29T01:27:19;7.80;99.90
13186;DHT22;6658;53.080;7.428;2023-05-29T01:29:47;7.80;99.90
13186;DHT22;6658;53.080;7.428;2023-05-29T01:32:14;7.70;99.90
13186;DHT22;6658;53.080;7.428;2023-05-29T01:34:40;7.70;99.90
13186;DHT22;6658;53.080;7.428;2023-05-29T01:37:05;7.70;99.90
13186;DHT22;6658;53.080;7.428;2023-05-29T01:39:32;7.60;99.90
13186;DHT22;6658;53.080;7.428;2023-05-29T01:41:59;7.60;99.90
13186;DHT22;6658;53.080;7.428;2023-05-29T01:44:26;7.60;99.90
13186;DHT22;6658;53.080;7.428;2023-05-29T01:46:53;7.60;99.90
13186;DHT22;6658;53.080;7.428;2023-05-29T01:49:19;7.60;99.90
13186;DHT22;6658;53.080;7.428;2023-05-29T01:51:46;7.60;99.90
13186;DHT22;6658;53.080;7.428;2023-05-29T01:54:11;7.60;99.90
13186;DHT22;6658;53.080;7.428;2023-05-29T01:56:38;7.60;99.90
13186;DHT22;6658;53.080;7.428;2023-05-29T01:59:04;7.60;99.90
13186;DHT22;6658;53.080;7.428;2023-05-29T02:01:31;7.60;99.90
13186;DHT22;6658;53.080;7.428;2023-05-29T02:03:57;7.50;99.90
13186;DHT22;6658;53.080;7.428;2023-05-29T02:06:22;7.60;99.90
13186;DHT22;6658;53.080;7.428;2023-05-29T02:08:48;7.50;99.90
13186;DHT22;6658;53.080;7.428;2023-05-29T02:11:14;7.50;99.90
13186;DHT22;6658;53.080;7.428;2023-05-29T02:13:41;7.50;99.90
13186;DHT22;6658;53.080;7.428;2023-05-29T02:16:06;7.40;99.90
13186;DHT22;6658;53.080;7.428;2023-05-29T02:18:32;7.40;99.90
13186;DHT22;6658;53.080;7.428;2023-05-29T02:20:59;7.30;99.90
13186;DHT22;6658;53.080;7.428;2023-05-29T02:23:25;7.30;99.90
13186;DHT22;6658;53.080;7.428;2023-05-29T02:25:51;7.20;99.90
13186;DHT22;6658;53.080;7.428;2023-05-29T02:28:17;7.20;99.90
13186;DHT22;6658;53.080;7.428;2023-05-29T02:30:42;7.20;99.90
13186;DHT22;6658;53.080;7.428;2023-05-29T02:33:08;7.20;99.90
13186;DHT22;6658;53.080;7.428;2023-05-29T02:35:34;7.20;99.90
13186;DHT22;6658;53.080;7.428;2023-05-29T02:38:00;7.10;99.90
13186;DHT22;6658;53.080;7.428;2023-05-29T02:40:25;7.20;99.90
13186;DHT22;6658;53.080;7.428;2023-05-29T02:42:51;7.10;99.90
13186;DHT22;6658;53.080;7.428;2023-05-29T02:45:17;7.10;99.90
13186;DHT22;6658;53.080;7.428;2023-05-29T02:47:42;7.10;99.90
13186;DHT22;6658;53.080;7.428;2023-05-29T02:50:09;7.10;99.90
13186;DHT22;6658;53.080;7.428;2023-05-29T02:52:35;7.10;99.90
13186;DHT22;6658;53.080;7.428;2023-05-29T02:55:02;7.10;99.90
13186;DHT22;6658;53.080;7.428;2023-05-29T02:57:29;7.00;99.90
13186;DHT22;6658;53.080;7.428;2023-05-29T02:59:55;7.00;99.90
13186;DHT22;6658;53.080;7.428;2023-05-29T03:02:20;7.00;99.90
13186;DHT22;6658;53.080;7.428;2023-05-29T03:04:46;7.00;99.90
13186;DHT22;6658;53.080;7.428;2023-05-29T03:07:15;7.00;99.90
13186;DHT22;6658;53.080;7.428;2023-05-29T03:09:41;7.00;99.90
13186;DHT22;6658;53.080;7.428;2023-05-29T03:12:07;7.00;99.90
13186;DHT22;6658;53.080;7.428;2023-05-29T03:14:32;7.00;99.90
13186;DHT22;6658;53.080;7.428;2023-05-29T03:17:03;7.10;99.90
13186;DHT22;6658;53.080;7.428;2023-05-29T03:19:29;7.00;99.90
13186;DHT22;6658;53.080;7.428;2023-05-29T03:21:55;7.10;99.90
13186;DHT22;6658;53.080;7.428;2023-05-29T03:24:20;7.00;99.90
13186;DHT22;6658;53.080;7.428;2023-05-29T03:26:46;7.10;99.90
13186;DHT22;6658;53.080;7.428;2023-05-29T03:29:12;7.00;99.90
13186;DHT22;6658;53.080;7.428;2023-05-29T03:31:37;7.00;99.90
13186;DHT22;6658;53.080;7.428;2023-05-29T03:34:03;7.10;99.90
13186;DHT22;6658;53.080;7.428;2023-05-29T03:36:29;7.10;99.90
13186;DHT22;6658;53.080;7.428;2023-05-29T03:38:54;7.10;99.90
13186;DHT22;6658;53.080;7.428;2023-05-29T03:41:20;7.10;99.90
13186;DHT22;6658;53.080;7.428;2023-05-29T03:43:46;7.20;99.90
13186;DHT22;6658;53.080;7.428;2023-05-29T03:46:12;7.20;99.90
13186;DHT22;6658;53.080;7.428;2023-05-29T03:48:37;7.20;99.90
13186;DHT22;6658;53.080;7.428;2023-05-29T03:51:03;7.20;99.90
13186;DHT22;6658;53.080;7.428;2023-05-29T03:53:30;7.30;99.90
13186;DHT22;6658;53.080;7.428;2023-05-29T03:55:56;7.30;99.90
13186;DHT22;6658;53.080;7.428;2023-05-29T03:58:21;7.40;99.90
13186;DHT22;6658;53.080;7.428;2023-05-29T04:00:47;7.40;99.90
13186;DHT22;6658;53.080;7.428;2023-05-29T04:03:13;7.50;99.90
13186;DHT22;6658;53.080;7.428;2023-05-29T04:05:39;7.60;99.90
13186;DHT22;6658;53.080;7.428;2023-05-29T04:08:05;7.70;99.90
13186;DHT22;6658;53.080;7.428;2023-05-29T04:10:31;7.70;99.90
13186;DHT22;6658;53.080;7.428;2023-05-29T04:13:00;7.80;99.90
13186;DHT22;6658;53.080;7.428;2023-05-29T04:15:27;7.90;99.90
13186;DHT22;6658;53.080;7.428;2023-05-29T04:17:54;8.10;99.90
13186;DHT22;6658;53.080;7.428;2023-05-29T04:20:20;8.20;99.90
13186;DHT22;6658;53.080;7.428;2023-05-29T04:22:46;8.30;99.90
13186;DHT22;6658;53.080;7.428;2023-05-29T04:25:12;8.40;99.90
13186;DHT22;6658;53.080;7.428;2023-05-29T04:27:37;8.60;99.90
13186;DHT22;6658;53.080;7.428;2023-05-29T04:30:07;8.70;99.90
13186;DHT22;6658;53.080;7.428;2023-05-29T04:32:33;8.80;99.90
13186;DHT22;6658;53.080;7.428;2023-05-29T04:34:59;9.00;99.90
13186;DHT22;6658;53.080;7.428;2023-05-29T04:37:29;9.30;99.90
13186;DHT22;6658;53.080;7.428;2023-05-29T04:39:58;9.50;99.90
13186;DHT22;6658;53.080;7.428;2023-05-29T04:42:24;9.80;99.90
13186;DHT22;6658;53.080;7.428;2023-05-29T04:44:51;10.00;99.90
13186;DHT22;6658;53.080;7.428;2023-05-29T04:47:19;10.20;99.90
13186;DHT22;6658;53.080;7.428;2023-05-29T04:49:45;10.50;99.90
13186;DHT22;6658;53.080;7.428;2023-05-29T04:52:15;10.80;99.90
13186;DHT22;6658;53.080;7.428;2023-05-29T04:54:41;11.10;99.90
13186;DHT22;6658;53.080;7.428;2023-05-29T04:57:07;11.30;99.90
13186;DHT22;6658;53.080;7.428;2023-05-29T04:59:34;11.60;99.90
13186;DHT22;6658;53.080;7.428;2023-05-29T05:02:00;11.70;99.90
13186;DHT22;6658;53.080;7.428;2023-05-29T05:04:26;11.70;99.90
13186;DHT22;6658;53.080;7.428;2023-05-29T05:06:52;11.90;99.90
13186;DHT22;6658;53.080;7.428;2023-05-29T05:09:17;12.20;99.90
13186;DHT22;6658;53.080;7.428;2023-05-29T05:11:43;12.30;99.90
13186;DHT22;6658;53.080;7.428;2023-05-29T05:14:09;12.40;99.90
13186;DHT22;6658;53.080;7.428;2023-05-29T05:16:35;12.60;99.90
13186;DHT22;6658;53.080;7.428;2023-05-29T05:19:00;12.80;99.90
13186;DHT22;6658;53.080;7.428;2023-05-29T05:21:26;13.00;99.90
13186;DHT22;6658;53.080;7.428;2023-05-29T05:23:52;13.20;99.90
13186;DHT22;6658;53.080;7.428;2023-05-29T05:26:17;13.30;99.90
13186;DHT22;6658;53.080;7.428;2023-05-29T05:28:43;13.50;99.90
13186;DHT22;6658;53.080;7.428;2023-05-29T05:31:09;13.60;99.90
13186;DHT22;6658;53.080;7.428;2023-05-29T05:33:34;13.50;99.90
13186;DHT22;6658;53.080;7.428;2023-05-29T05:36:00;13.40;99.90
13186;DHT22;6658;53.080;7.428;2023-05-29T05:38:26;13.50;99.90
13186;DHT22;6658;53.080;7.428;2023-05-29T05:40:51;13.20;99.90
13186;DHT22;6658;53.080;7.428;2023-05-29T05:43:17;13.20;99.90
13186;DHT22;6658;53.080;7.428;2023-05-29T05:45:43;13.40;99.90
13186;DHT22;6658;53.080;7.428;2023-05-29T05:48:09;13.50;99.90
13186;DHT22;6658;53.080;7.428;2023-05-29T05:50:35;13.70;99.90
13186;DHT22;6658;53.080;7.428;2023-05-29T05:53:00;13.90;99.90
13186;DHT22;6658;53.080;7.428;2023-05-29T05:55:26;14.00;99.90
13186;DHT22;6658;53.080;7.428;2023-05-29T05:57:54;14.20;99.90
13186;DHT22;6658;53.080;7.428;2023-05-29T06:00:22;13.80;99.90
13186;DHT22;6658;53.080;7.428;2023-05-29T06:02:48;13.80;99.90
13186;DHT22;6658;53.080;7.428;2023-05-29T06:05:14;14.20;99.90
13186;DHT22;6658;53.080;7.428;2023-05-29T06:07:40;14.00;99.90
13186;DHT22;6658;53.080;7.428;2023-05-29T06:10:07;14.20;99.90
13186;DHT22;6658;53.080;7.428;2023-05-29T06:12:33;14.50;99.90
13186;DHT22;6658;53.080;7.428;2023-05-29T06:14:59;14.50;99.90
13186;DHT22;6658;53.080;7.428;2023-05-29T06:17:25;14.70;99.90
13186;DHT22;6658;53.080;7.428;2023-05-29T06:19:52;14.80;99.90
13186;DHT22;6658;53.080;7.428;2023-05-29T06:22:18;14.70;99.90
13186;DHT22;6658;53.080;7.428;2023-05-29T06:24:44;14.70;99.90
13186;DHT22;6658;53.080;7.428;2023-05-29T06:27:10;14.50;99.90
13186;DHT22;6658;53.080;7.428;2023-05-29T06:29:36;14.60;99.90
13186;DHT22;6658;53.080;7.428;2023-05-29T06:32:02;14.60;99.90
13186;DHT22;6658;53.080;7.428;2023-05-29T06:34:27;14.60;99.90
13186;DHT22;6658;53.080;7.428;2023-05-29T06:36:53;14.40;99.90
13186;DHT22;6658;53.080;7.428;2023-05-29T06:39:19;14.20;99.90
13186;DHT22;6658;53.080;7.428;2023-05-29T06:41:46;14.20;99.90
13186;DHT22;6658;53.080;7.428;2023-05-29T06:44:11;14.30;99.90
13186;DHT22;6658;53.080;7.428;2023-05-29T06:46:37;14.20;99.90
13186;DHT22;6658;53.080;7.428;2023-05-29T06:49:03;14.50;99.90
13186;DHT22;6658;53.080;7.428;2023-05-29T06:51:29;14.40;99.90
13186;DHT22;6658;53.080;7.428;2023-05-29T06:53:55;14.30;99.90
13186;DHT22;6658;53.080;7.428;2023-05-29T06:56:21;14.70;99.90
13186;DHT22;6658;53.080;7.428;2023-05-29T06:58:47;14.80;99.90
13186;DHT22;6658;53.080;7.428;2023-05-29T07:01:13;15.10;99.90
13186;DHT22;6658;53.080;7.428;2023-05-29T07:03:39;15.50;99.90
13186;DHT22;6658;53.080;7.428;2023-05-29T07:06:05;15.60;99.90
13186;DHT22;6658;53.080;7.428;2023-05-29T07:08:31;15.70;99.90
13186;DHT22;6658;53.080;7.428;2023-05-29T07:10:57;15.50;99.90
13186;DHT22;6658;53.080;7.428;2023-05-29T07:13:25;15.40;99.90
13186;DHT22;6658;53.080;7.428;2023-05-29T07:15:51;15.10;99.90
13186;DHT22;6658;53.080;7.428;2023-05-29T07:18:17;14.90;99.90
13186;DHT22;6658;53.080;7.428;2023-05-29T07:20:42;14.90;99.90
13186;DHT22;6658;53.080;7.428;2023-05-29T07:23:08;14.70;99.90
13186;DHT22;6658;53.080;7.428;2023-05-29T07:25:34;14.60;99.90
13186;DHT22;6658;53.080;7.428;2023-05-29T07:28:00;14.50;99.90
13186;DHT22;6658;53.080;7.428;2023-05-29T07:30:25;14.30;99.90
13186;DHT22;6658;53.080;7.428;2023-05-29T07:32:51;14.50;99.90
13186;DHT22;6658;53.080;7.428;2023-05-29T07:35:17;14.50;99.90
13186;DHT22;6658;53.080;7.428;2023-05-29T07:37:42;14.70;99.90
13186;DHT22;6658;53.080;7.428;2023-05-29T07:40:09;14.60;99.90
13186;DHT22;6658;53.080;7.428;2023-05-29T07:42:35;14.90;99.90
13186;DHT22;6658;53.080;7.428;2023-05-29T07:45:01;15.40;99.90
13186;DHT22;6658;53.080;7.428;2023-05-29T07:47:27;15.70;99.90
13186;DHT22;6658;53.080;7.428;2023-05-29T07:49:53;15.60;99.90
13186;DHT22;6658;53.080;7.428;2023-05-29T07:52:18;15.70;99.90
13186;DHT22;6658;53.080;7.428;2023-05-29T07:54:44;15.70;99.90
13186;DHT22;6658;53.080;7.428;2023-05-29T07:57:10;15.50;99.90
13186;DHT22;6658;53.080;7.428;2023-05-29T07:59:36;15.40;99.90
13186;DHT22;6658;53.080;7.428;2023-05-29T08:02:02;15.50;99.90
13186;DHT22;6658;53.080;7.428;2023-05-29T08:04:29;15.50;99.90
13186;DHT22;6658;53.080;7.428;2023-05-29T08:06:56;15.60;99.90
13186;DHT22;6658;53.080;7.428;2023-05-29T08:09:21;15.50;99.90
13186;DHT22;6658;53.080;7.428;2023-05-29T08:11:47;15.50;99.90
13186;DHT22;6658;53.080;7.428;2023-05-29T08:14:14;15.90;99.90
13186;DHT22;6658;53.080;7.428;2023-05-29T08:16:41;16.00;99.90
13186;DHT22;6658;53.080;7.428;2023-05-29T08:19:06;16.10;99.90
13186;DHT22;6658;53.080;7.428;2023-05-29T08:21:32;16.30;99.90
13186;DHT22;6658;53.080;7.428;2023-05-29T08:23:58;16.30;99.90
13186;DHT22;6658;53.080;7.428;2023-05-29T08:26:24;16.60;99.90
13186;DHT22;6658;53.080;7.428;2023-05-29T08:28:50;16.30;99.90
13186;DHT22;6658;53.080;7.428;2023-05-29T08:31:16;16.00;99.90
13186;DHT22;6658;53.080;7.428;2023-05-29T08:33:42;16.20;99.90
13186;DHT22;6658;53.080;7.428;2023-05-29T08:36:08;16.40;99.90
13186;DHT22;6658;53.080;7.428;2023-05-29T08:38:36;16.70;99.90
13186;DHT22;6658;53.080;7.428;2023-05-29T08:41:02;16.90;99.90
13186;DHT22;6658;53.080;7.428;2023-05-29T08:43:31;17.20;99.90
13186;DHT22;6658;53.080;7.428;2023-05-29T08:46:02;17.50;99.90
13186;DHT22;6658;53.080;7.428;2023-05-29T08:48:30;17.40;99.90
13186;DHT22;6658;53.080;7.428;2023-05-29T08:50:57;17.80;99.90
13186;DHT22;6658;53.080;7.428;2023-05-29T08:53:24;17.60;99.90
13186;DHT22;6658;53.080;7.428;2023-05-29T08:55:51;17.90;99.90
13186;DHT22;6658;53.080;7.428;2023-05-29T08:58:19;18.00;99.90
13186;DHT22;6658;53.080;7.428;2023-05-29T09:00:51;17.90;99.90
13186;DHT22;6658;53.080;7.428;2023-05-29T09:03:17;17.70;99.90
13186;DHT22;6658;53.080;7.428;2023-05-29T09:05:44;17.60;99.90
13186;DHT22;6658;53.080;7.428;2023-05-29T09:08:11;17.90;99.90
13186;DHT22;6658;53.080;7.428;2023-05-29T09:10:44;18.00;99.90
13186;DHT22;6658;53.080;7.428;2023-05-29T09:13:11;18.00;99.90
13186;DHT22;6658;53.080;7.428;2023-05-29T09:15:40;18.20;99.90
13186;DHT22;6658;53.080;7.428;2023-05-29T09:18:08;18.20;99.90
13186;DHT22;6658;53.080;7.428;2023-05-29T09:20:34;18.40;99.90
13186;DHT22;6658;53.080;7.428;2023-05-29T09:23:02;18.60;99.90
13186;DHT22;6658;53.080;7.428;2023-05-29T09:25:31;18.80;99.90
13186;DHT22;6658;53.080;7.428;2023-05-29T09:28:02;18.80;99.90
13186;DHT22;6658;53.080;7.428;2023-05-29T09:33:09;18.50;99.90
13186;DHT22;6658;53.080;7.428;2023-05-29T09:35:41;18.10;99.90
13186;DHT22;6658;53.080;7.428;2023-05-29T09:38:11;18.20;99.90
13186;DHT22;6658;53.080;7.428;2023-05-29T09:40:39;18.00;99.90
13186;DHT22;6658;53.080;7.428;2023-05-29T09:43:16;17.80;99.90
13186;DHT22;6658;53.080;7.428;2023-05-29T09:45:47;18.00;99.90
13186;DHT22;6658;53.080;7.428;2023-05-29T09:48:18;18.10;99.90
13186;DHT22;6658;53.080;7.428;2023-05-29T09:50:46;18.30;99.90
13186;DHT22;6658;53.080;7.428;2023-05-29T09:53:19;18.20;99.90
13186;DHT22;6658;53.080;7.428;2023-05-29T09:55:48;18.30;99.90
13186;DHT22;6658;53.080;7.428;2023-05-29T09:58:17;18.30;99.90
13186;DHT22;6658;53.080;7.428;2023-05-29T10:00:43;18.00;99.90
13186;DHT22;6658;53.080;7.428;2023-05-29T10:03:10;18.30;99.90
13186;DHT22;6658;53.080;7.428;2023-05-29T10:05:39;18.60;99.90
13186;DHT22;6658;53.080;7.428;2023-05-29T10:08:09;18.50;99.90
13186;DHT22;6658;53.080;7.428;2023-05-29T10:10:38;18.50;99.90
13186;DHT22;6658;53.080;7.428;2023-05-29T10:13:05;18.30;99.90
13186;DHT22;6658;53.080;7.428;2023-05-29T10:15:32;18.00;99.90
13186;DHT22;6658;53.080;7.428;2023-05-29T10:18:10;18.10;99.90
13186;DHT22;6658;53.080;7.428;2023-05-29T10:20:38;18.40;99.90
13186;DHT22;6658;53.080;7.428;2023-05-29T10:23:06;18.50;99.90
13186;DHT22;6658;53.080;7.428;2023-05-29T10:25:35;18.60;99.90
13186;DHT22;6658;53.080;7.428;2023-05-29T10:28:01;18.50;99.90
13186;DHT22;6658;53.080;7.428;2023-05-29T10:30:41;18.70;99.90
13186;DHT22;6658;53.080;7.428;2023-05-29T10:36:14;18.90;99.90
13186;DHT22;6658;53.080;7.428;2023-05-29T10:38:44;19.20;99.90
13186;DHT22;6658;53.080;7.428;2023-05-29T10:44:03;19.60;99.90
13186;DHT22;6658;53.080;7.428;2023-05-29T10:49:21;20.00;99.90
13186;DHT22;6658;53.080;7.428;2023-05-29T10:51:48;20.50;99.90
13186;DHT22;6658;53.080;7.428;2023-05-29T10:54:14;20.80;97.70
13186;DHT22;6658;53.080;7.428;2023-05-29T10:56:44;20.80;98.40
13186;DHT22;6658;53.080;7.428;2023-05-29T10:59:10;20.70;98.10
13186;DHT22;6658;53.080;7.428;2023-05-29T11:01:39;19.90;98.30
13186;DHT22;6658;53.080;7.428;2023-05-29T11:06:46;19.40;99.90
13186;DHT22;6658;53.080;7.428;2023-05-29T11:12:20;18.60;99.90
13186;DHT22;6658;53.080;7.428;2023-05-29T11:15:10;18.20;99.90
13186;DHT22;6658;53.080;7.428;2023-05-29T11:20:05;17.80;99.90
13186;DHT22;6658;53.080;7.428;2023-05-29T11:23:01;17.80;99.90
13186;DHT22;6658;53.080;7.428;2023-05-29T11:25:28;18.40;99.90
13186;DHT22;6658;53.080;7.428;2023-05-29T11:27:56;19.10;99.90
13186;DHT22;6658;53.080;7.428;2023-05-29T11:30:22;19.60;99.90
13186;DHT22;6658;53.080;7.428;2023-05-29T11:32:48;19.70;99.90
13186;DHT22;6658;53.080;7.428;2023-05-29T11:35:15;19.90;99.90
13186;DHT22;6658;53.080;7.428;2023-05-29T11:37:43;20.10;99.90
13186;DHT22;6658;53.080;7.428;2023-05-29T11:40:11;20.20;99.90
13186;DHT22;6658;53.080;7.428;2023-05-29T11:42:47;20.50;99.90
13186;DHT22;6658;53.080;7.428;2023-05-29T11:45:17;20.10;99.40
13186;DHT22;6658;53.080;7.428;2023-05-29T11:47:59;20.00;99.80
13186;DHT22;6658;53.080;7.428;2023-05-29T11:50:27;19.50;99.50
13186;DHT22;6658;53.080;7.428;2023-05-29T11:52:53;19.40;99.90
13186;DHT22;6658;53.080;7.428;2023-05-29T11:55:20;19.10;99.90
13186;DHT22;6658;53.080;7.428;2023-05-29T11:57:56;18.80;99.90
13186;DHT22;6658;53.080;7.428;2023-05-29T12:00:23;18.90;99.90
13186;DHT22;6658;53.080;7.428;2023-05-29T12:02:51;18.70;99.90
13186;DHT22;6658;53.080;7.428;2023-05-29T12:05:17;18.70;99.90
13186;DHT22;6658;53.080;7.428;2023-05-29T12:07:48;18.80;99.90
13186;DHT22;6658;53.080;7.428;2023-05-29T12:10:21;18.70;99.90
13186;DHT22;6658;53.080;7.428;2023-05-29T12:12:50;18.80;99.90
13186;DHT22;6658;53.080;7.428;2023-05-29T12:15:17;18.70;99.90
13186;DHT22;6658;53.080;7.428;2023-05-29T12:17:44;18.40;99.90
13186;DHT22;6658;53.080;7.428;2023-05-29T12:20:11;18.70;99.90
13186;DHT22;6658;53.080;7.428;2023-05-29T12:22:40;18.70;99.50
13186;DHT22;6658;53.080;7.428;2023-05-29T12:25:14;18.20;99.90
13186;DHT22;6658;53.080;7.428;2023-05-29T12:27:42;18.00;99.90
13186;DHT22;6658;53.080;7.428;2023-05-29T12:32:46;17.90;99.90
13186;DHT22;6658;53.080;7.428;2023-05-29T12:35:23;17.70;99.90
13186;DHT22;6658;53.080;7.428;2023-05-29T12:37:53;17.60;99.90
13186;DHT22;6658;53.080;7.428;2023-05-29T12:40:24;17.60;99.90
13186;DHT22;6658;53.080;7.428;2023-05-29T12:43:19;17.70;99.90
13186;DHT22;6658;53.080;7.428;2023-05-29T12:45:45;17.70;99.90
13186;DHT22;6658;53.080;7.428;2023-05-29T12:48:11;17.60;99.90
13186;DHT22;6658;53.080;7.428;2023-05-29T12:50:38;17.50;99.90
13186;DHT22;6658;53.080;7.428;2023-05-29T12:53:09;17.60;99.90
13186;DHT22;6658;53.080;7.428;2023-05-29T12:55:40;17.50;99.90
13186;DHT22;6658;53.080;7.428;2023-05-29T12:58:08;17.30;99.90
13186;DHT22;6658;53.080;7.428;2023-05-29T13:00:35;17.50;99.90
13186;DHT22;6658;53.080;7.428;2023-05-29T13:03:01;17.40;99.90
13186;DHT22;6658;53.080;7.428;2023-05-29T13:05:27;17.30;99.90
13186;DHT22;6658;53.080;7.428;2023-05-29T13:07:53;17.20;99.90
13186;DHT22;6658;53.080;7.428;2023-05-29T13:10:20;17.10;99.90
13186;DHT22;6658;53.080;7.428;2023-05-29T13:12:46;16.90;99.90
13186;DHT22;6658;53.080;7.428;2023-05-29T13:15:13;16.80;99.90
13186;DHT22;6658;53.080;7.428;2023-05-29T13:17:40;17.00;99.90
13186;DHT22;6658;53.080;7.428;2023-05-29T13:20:15;17.10;99.90
13186;DHT22;6658;53.080;7.428;2023-05-29T13:22:43;17.10;99.90
13186;DHT22;6658;53.080;7.428;2023-05-29T13:25:10;17.10;99.90
13186;DHT22;6658;53.080;7.428;2023-05-29T13:27:38;17.10;99.90
13186;DHT22;6658;53.080;7.428;2023-05-29T13:30:05;17.10;99.90
13186;DHT22;6658;53.080;7.428;2023-05-29T13:32:32;17.10;99.90
13186;DHT22;6658;53.080;7.428;2023-05-29T13:34:58;17.30;99.90
13186;DHT22;6658;53.080;7.428;2023-05-29T13:37:24;17.20;99.90
13186;DHT22;6658;53.080;7.428;2023-05-29T13:39:49;17.10;99.90
13186;DHT22;6658;53.080;7.428;2023-05-29T13:42:17;17.00;99.90
13186;DHT22;6658;53.080;7.428;2023-05-29T13:44:42;16.90;99.90
13186;DHT22;6658;53.080;7.428;2023-05-29T13:47:08;16.90;99.90
13186;DHT22;6658;53.080;7.428;2023-05-29T13:49:34;16.90;99.90
13186;DHT22;6658;53.080;7.428;2023-05-29T13:52:01;16.90;99.90
13186;DHT22;6658;53.080;7.428;2023-05-29T13:54:27;16.90;99.90
13186;DHT22;6658;53.080;7.428;2023-05-29T13:56:57;16.90;99.90
13186;DHT22;6658;53.080;7.428;2023-05-29T13:59:24;16.90;99.90
13186;DHT22;6658;53.080;7.428;2023-05-29T14:01:50;16.80;99.80
13186;DHT22;6658;53.080;7.428;2023-05-29T14:04:17;16.80;99.90
13186;DHT22;6658;53.080;7.428;2023-05-29T14:06:43;16.80;99.90
13186;DHT22;6658;53.080;7.428;2023-05-29T14:09:08;16.90;99.90
13186;DHT22;6658;53.080;7.428;2023-05-29T14:11:38;17.00;99.90
13186;DHT22;6658;53.080;7.428;2023-05-29T14:14:04;17.10;99.90
13186;DHT22;6658;53.080;7.428;2023-05-29T14:16:31;17.20;99.90
13186;DHT22;6658;53.080;7.428;2023-05-29T14:18:57;17.30;99.90
13186;DHT22;6658;53.080;7.428;2023-05-29T14:21:23;17.20;99.90
13186;DHT22;6658;53.080;7.428;2023-05-29T14:23:48;17.00;99.90
13186;DHT22;6658;53.080;7.428;2023-05-29T14:26:14;16.90;99.90
13186;DHT22;6658;53.080;7.428;2023-05-29T14:28:40;16.80;99.90
13186;DHT22;6658;53.080;7.428;2023-05-29T14:31:06;16.80;99.90
13186;DHT22;6658;53.080;7.428;2023-05-29T14:33:32;16.60;99.90
13186;DHT22;6658;53.080;7.428;2023-05-29T14:35:58;16.80;99.90
13186;DHT22;6658;53.080;7.428;2023-05-29T14:38:25;16.90;99.90
13186;DHT22;6658;53.080;7.428;2023-05-29T14:40:51;16.80;99.90
13186;DHT22;6658;53.080;7.428;2023-05-29T14:43:18;16.80;99.90
13186;DHT22;6658;53.080;7.428;2023-05-29T14:45:44;16.70;99.90
13186;DHT22;6658;53.080;7.428;2023-05-29T14:48:10;16.70;99.90
13186;DHT22;6658;53.080;7.428;2023-05-29T14:50:36;16.70;99.90
13186;DHT22;6658;53.080;7.428;2023-05-29T14:53:03;16.70;99.90
13186;DHT22;6658;53.080;7.428;2023-05-29T14:55:29;16.70;99.90
13186;DHT22;6658;53.080;7.428;2023-05-29T14:57:57;16.70;99.90
13186;DHT22;6658;53.080;7.428;2023-05-29T15:00:23;16.60;99.90
13186;DHT22;6658;53.080;7.428;2023-05-29T15:02:49;16.70;99.90
13186;DHT22;6658;53.080;7.428;2023-05-29T15:05:18;16.70;99.90
13186;DHT22;6658;53.080;7.428;2023-05-29T15:07:44;16.70;99.90
13186;DHT22;6658;53.080;7.428;2023-05-29T15:10:10;16.50;99.90
13186;DHT22;6658;53.080;7.428;2023-05-29T15:12:36;16.50;99.90
13186;DHT22;6658;53.080;7.428;2023-05-29T15:15:02;16.40;99.90
13186;DHT22;6658;53.080;7.428;2023-05-29T15:17:29;16.40;99.90
13186;DHT22;6658;53.080;7.428;2023-05-29T15:19:54;16.60;99.90
13186;DHT22;6658;53.080;7.428;2023-05-29T15:22:21;16.50;99.90
13186;DHT22;6658;53.080;7.428;2023-05-29T15:24:47;16.50;99.90
13186;DHT22;6658;53.080;7.428;2023-05-29T15:27:13;16.50;99.90
13186;DHT22;6658;53.080;7.428;2023-05-29T15:29:41;16.60;99.90
13186;DHT22;6658;53.080;7.428;2023-05-29T15:32:07;16.50;99.90
13186;DHT22;6658;53.080;7.428;2023-05-29T15:34:33;16.50;99.90
13186;DHT22;6658;53.080;7.428;2023-05-29T15:37:00;16.60;99.90
13186;DHT22;6658;53.080;7.428;2023-05-29T15:39:25;16.50;99.90
13186;DHT22;6658;53.080;7.428;2023-05-29T15:41:51;16.50;99.90
13186;DHT22;6658;53.080;7.428;2023-05-29T15:44:17;16.40;99.90
13186;DHT22;6658;53.080;7.428;2023-05-29T15:46:43;16.40;99.90
13186;DHT22;6658;53.080;7.428;2023-05-29T15:49:09;16.40;99.90
13186;DHT22;6658;53.080;7.428;2023-05-29T15:51:35;16.40;99.90
13186;DHT22;6658;53.080;7.428;2023-05-29T15:54:06;16.50;99.90
13186;DHT22;6658;53.080;7.428;2023-05-29T15:56:32;16.40;98.40
13186;DHT22;6658;53.080;7.428;2023-05-29T15:58:58;16.40;99.00
13186;DHT22;6658;53.080;7.428;2023-05-29T16:01:24;16.40;99.90
13186;DHT22;6658;53.080;7.428;2023-05-29T16:03:49;16.50;99.20
13186;DHT22;6658;53.080;7.428;2023-05-29T16:06:15;16.40;99.20
13186;DHT22;6658;53.080;7.428;2023-05-29T16:08:41;16.30;99.50
13186;DHT22;6658;53.080;7.428;2023-05-29T16:11:07;16.20;98.00
13186;DHT22;6658;53.080;7.428;2023-05-29T16:13:33;16.00;99.20
13186;DHT22;6658;53.080;7.428;2023-05-29T16:16:00;15.90;98.90